N394AM KLXV-KLXV
Flight info
| Callsign | N394AM |
|---|---|
| Flight time | N/A |
| Altitude | 12500 |
| Route | VFR KLXV TO KASE TO KGWS TO KEGE TO KLXV |
| Aircraft | PA24/L-DOV/C |
Departure
| Time | 2026-04-22 00:02 |
|---|---|
| Airport | Lake County Airport (KLXV) |
Arrival
| Time | N/A |
|---|---|
| Airport | Lake County Airport (KLXV) |
| Time | Latitude | Longitude | Altitude | Speed | Heading |
|---|---|---|---|---|---|
| 2026-04-21 23:18 | 39.22314 | -106.31619 | 9938 ft | 0 kts | 78° |
| 2026-04-21 23:48 | 39.22313 | -106.31611 | 9934 ft | 2 kts | 88° |
| 2026-04-21 23:48 | 39.22322 | -106.31619 | 9936 ft | 6 kts | 221° |
| 2026-04-21 23:48 | 39.22305 | -106.31627 | 9935 ft | 1 kts | 200° |
| 2026-04-21 23:48 | 39.22297 | -106.31632 | 9938 ft | 0 kts | 203° |
| 2026-04-21 23:51 | 39.22271 | -106.31646 | 9935 ft | 9 kts | 202° |
| 2026-04-21 23:51 | 39.22188 | -106.31685 | 9930 ft | 16 kts | 197° |
| 2026-04-21 23:52 | 39.22106 | -106.31681 | 9933 ft | 12 kts | 170° |
| 2026-04-21 23:52 | 39.21989 | -106.31654 | 9933 ft | 22 kts | 169° |
| 2026-04-21 23:52 | 39.21816 | -106.31616 | 9929 ft | 28 kts | 170° |
| 2026-04-21 23:52 | 39.21604 | -106.31571 | 9926 ft | 32 kts | 171° |
| 2026-04-21 23:53 | 39.21385 | -106.31524 | 9926 ft | 32 kts | 171° |
| 2026-04-21 23:53 | 39.21229 | -106.31492 | 9930 ft | 20 kts | 172° |
| 2026-04-21 23:53 | 39.21166 | -106.31453 | 9928 ft | 11 kts | 101° |
| 2026-04-21 23:53 | 39.21169 | -106.31382 | 9930 ft | 0 kts | 121° |
| 2026-04-21 23:54 | 39.21135 | -106.31364 | 9930 ft | 4 kts | 171° |
| 2026-04-21 23:54 | 39.21129 | -106.31363 | 9930 ft | 0 kts | 171° |
| 2026-04-21 23:55 | 39.21105 | -106.31364 | 9929 ft | 1 kts | 207° |
| 2026-04-21 23:56 | 39.21096 | -106.31375 | 9929 ft | 4 kts | 248° |
| 2026-04-21 23:56 | 39.21094 | -106.31385 | 9931 ft | 0 kts | 260° |
| 2026-04-21 23:56 | 39.21094 | -106.31391 | 9932 ft | 3 kts | 260° |
| 2026-04-21 23:57 | 39.21087 | -106.31440 | 9931 ft | 7 kts | 261° |
| 2026-04-21 23:57 | 39.21092 | -106.31463 | 9930 ft | 4 kts | 331° |
| 2026-04-21 23:57 | 39.21098 | -106.31465 | 9931 ft | 0 kts | 348° |
| 2026-04-22 00:01 | 39.21109 | -106.31468 | 9919 ft | 10 kts | 347° |
| 2026-04-22 00:01 | 39.21303 | -106.31513 | 9927 ft | 51 kts | 352° |
| 2026-04-22 00:01 | 39.21777 | -106.31616 | 9926 ft | 86 kts | 346° |
| 2026-04-22 00:01 | 39.22445 | -106.31750 | 10017 ft | 100 kts | 342° |
| 2026-04-22 00:02 | 39.23120 | -106.31874 | 10292 ft | 94 kts | 339° |
| 2026-04-22 00:02 | 39.23747 | -106.32095 | 10587 ft | 96 kts | 322° |
| 2026-04-22 00:02 | 39.24098 | -106.32774 | 10841 ft | 93 kts | 262° |
| 2026-04-22 00:02 | 39.23901 | -106.33472 | 11138 ft | 78 kts | 221° |
| 2026-04-22 00:03 | 39.23384 | -106.33756 | 11266 ft | 85 kts | 182° |
| 2026-04-22 00:03 | 39.22772 | -106.33642 | 11400 ft | 95 kts | 168° |
| 2026-04-22 00:03 | 39.22135 | -106.33398 | 11550 ft | 97 kts | 163° |
| 2026-04-22 00:03 | 39.21508 | -106.33099 | 11696 ft | 98 kts | 158° |
| 2026-04-22 00:04 | 39.20867 | -106.32777 | 11763 ft | 101 kts | 161° |
| 2026-04-22 00:04 | 39.20232 | -106.32423 | 11890 ft | 99 kts | 163° |
| 2026-04-22 00:04 | 39.19582 | -106.32071 | 11968 ft | 103 kts | 162° |
| 2026-04-22 00:04 | 39.18918 | -106.31719 | 12090 ft | 104 kts | 159° |
| 2026-04-22 00:05 | 39.18249 | -106.31345 | 12180 ft | 108 kts | 162° |
| 2026-04-22 00:05 | 39.17545 | -106.30976 | 12358 ft | 107 kts | 162° |
| 2026-04-22 00:05 | 39.16856 | -106.30627 | 12509 ft | 108 kts | 164° |
| 2026-04-22 00:05 | 39.16139 | -106.30362 | 12676 ft | 107 kts | 168° |
| 2026-04-22 00:06 | 39.15415 | -106.30082 | 12812 ft | 108 kts | 172° |
| 2026-04-22 00:06 | 39.14694 | -106.29845 | 12980 ft | 106 kts | 168° |
| 2026-04-22 00:06 | 39.13971 | -106.29661 | 13111 ft | 108 kts | 184° |
| 2026-04-22 00:06 | 39.13270 | -106.29971 | 13280 ft | 102 kts | 209° |
| 2026-04-22 00:07 | 39.12667 | -106.30381 | 13418 ft | 100 kts | 210° |
| 2026-04-22 00:07 | 39.12026 | -106.30809 | 13502 ft | 103 kts | 207° |
| 2026-04-22 00:07 | 39.11439 | -106.31279 | 13669 ft | 101 kts | 216° |
| 2026-04-22 00:07 | 39.10873 | -106.31845 | 13776 ft | 102 kts | 218° |
| 2026-04-22 00:08 | 39.10343 | -106.32402 | 13917 ft | 99 kts | 220° |
| 2026-04-22 00:08 | 39.09804 | -106.32996 | 14037 ft | 103 kts | 217° |
| 2026-04-22 00:08 | 39.09256 | -106.33587 | 14087 ft | 111 kts | 220° |
| 2026-04-22 00:08 | 39.08709 | -106.34364 | 14118 ft | 114 kts | 235° |
| 2026-04-22 00:09 | 39.08330 | -106.35274 | 14156 ft | 119 kts | 242° |
| 2026-04-22 00:09 | 39.07965 | -106.36178 | 14291 ft | 115 kts | 244° |
| 2026-04-22 00:09 | 39.07685 | -106.37198 | 14276 ft | 123 kts | 251° |
| 2026-04-22 00:09 | 39.07551 | -106.38254 | 14399 ft | 121 kts | 261° |
| 2026-04-22 00:10 | 39.07433 | -106.39362 | 14419 ft | 127 kts | 256° |
| 2026-04-22 00:10 | 39.07313 | -106.40515 | 14413 ft | 132 kts | 257° |
| 2026-04-22 00:10 | 39.07302 | -106.41710 | 14430 ft | 137 kts | 268° |
| 2026-04-22 00:10 | 39.07377 | -106.42959 | 14424 ft | 143 kts | 271° |
| 2026-04-22 00:11 | 39.07411 | -106.44259 | 14415 ft | 147 kts | 268° |
| 2026-04-22 00:11 | 39.07461 | -106.45590 | 14407 ft | 151 kts | 268° |
| 2026-04-22 00:11 | 39.07567 | -106.46937 | 14401 ft | 153 kts | 273° |
| 2026-04-22 00:11 | 39.07720 | -106.48287 | 14394 ft | 153 kts | 274° |
| 2026-04-22 00:12 | 39.07899 | -106.49637 | 14389 ft | 152 kts | 275° |
| 2026-04-22 00:12 | 39.08078 | -106.50986 | 14387 ft | 155 kts | 274° |
| 2026-04-22 00:12 | 39.08259 | -106.52355 | 14380 ft | 156 kts | 276° |
| 2026-04-22 00:12 | 39.08474 | -106.53740 | 14369 ft | 159 kts | 281° |
| 2026-04-22 00:13 | 39.08805 | -106.55087 | 14360 ft | 157 kts | 283° |
| 2026-04-22 00:13 | 39.09179 | -106.56391 | 14350 ft | 155 kts | 284° |